Time;durP1;ratioP1;P1;durP2;ratioP2;P2;SDS_P1;SDS_P2;PMS_P1;PMS_P2;Temp;Humidity;BMP_temperature;BMP_pressure;BME280_temperature;BME280_humidity;BME280_pressure;Samples;Min_cycle;Max_cycle;Signal;HPM_P1;HPM_P2
2021/08/23 00:02:41;;;;;;;12.35;9.03;;;;;;;18.15;87.86;99006.16;4091777;85;21409;-81
2021/08/23 00:08:42;;;;;;;10.48;9.05;;;;;;;18.24;88.21;99008.38;4107330;85;21568;-82
2021/08/23 00:14:43;;;;;;;11.43;9.25;;;;;;;18.28;88.26;99007.09;4096946;85;21017;-82
2021/08/23 00:20:54;;;;;;;11.50;8.58;;;;;;;18.20;88.35;98993.80;4117224;85;21565;-81
2021/08/23 00:26:58;;;;;;;10.82;9.23;;;;;;;18.11;88.83;98991.60;4114571;85;21621;-84
2021/08/23 00:32:59;;;;;;;11.57;9.43;;;;;;;18.17;88.97;98989.10;4103686;85;21534;-84
2021/08/23 00:39:08;;;;;;;15.13;9.98;;;;;;;18.11;89.04;98984.67;4096996;85;21536;-84
2021/08/23 00:45:11;;;;;;;12.00;9.00;;;;;;;18.02;89.34;98982.28;4133480;85;21023;-85
2021/08/23 00:51:13;;;;;;;12.15;8.23;;;;;;;17.86;89.67;98988.52;4126479;85;21081;-83
2021/08/23 00:57:16;;;;;;;9.83;8.30;;;;;;;17.83;90.23;98974.72;4111654;85;21110;-83
2021/08/23 01:03:23;;;;;;;12.40;9.23;;;;;;;17.93;90.48;98984.84;4122412;85;21025;-82
2021/08/23 01:09:30;;;;;;;10.55;8.28;;;;;;;17.93;90.61;98986.98;4122780;85;21077;-83
2021/08/23 01:15:32;;;;;;;8.95;7.65;;;;;;;17.95;90.98;98991.50;4096274;85;21128;-82
2021/08/23 01:21:34;;;;;;;9.65;8.33;;;;;;;17.91;90.85;98988.03;4120900;85;21089;-82
2021/08/23 01:27:38;;;;;;;9.90;6.90;;;;;;;17.93;91.29;98991.14;4123204;85;21066;-82
2021/08/23 01:33:41;;;;;;;9.40;7.70;;;;;;;17.90;91.54;98989.84;3993346;87;21092;-82
2021/08/23 01:39:43;;;;;;;9.28;7.72;;;;;;;17.93;91.69;98984.22;4025735;87;21053;-82
2021/08/23 01:45:44;;;;;;;10.20;9.03;;;;;;;17.98;91.69;98983.73;4005060;87;22387;-82
2021/08/23 01:51:45;;;;;;;11.35;8.63;;;;;;;17.97;91.76;98975.84;4014850;87;21071;-82
2021/08/23 01:57:47;;;;;;;11.30;8.65;;;;;;;17.93;91.89;98976.53;4001944;87;21106;-82
2021/08/23 02:03:49;;;;;;;10.35;8.68;;;;;;;17.86;92.19;98962.20;3958732;88;21455;-82
2021/08/23 02:09:50;;;;;;;12.30;9.13;;;;;;;17.82;92.25;98955.17;3964312;88;21617;-82
2021/08/23 02:15:51;;;;;;;13.75;8.63;;;;;;;17.71;92.29;98956.73;4116539;85;21030;-82
2021/08/23 02:21:55;;;;;;;12.88;8.95;;;;;;;17.66;92.89;98945.38;4098070;85;21593;-82
2021/08/23 02:27:56;;;;;;;10.00;7.97;;;;;;;17.63;92.83;98933.17;4127707;85;21161;-82
2021/08/23 02:33:57;;;;;;;10.88;7.90;;;;;;;17.74;93.40;98933.77;4122852;85;21070;-82
2021/08/23 02:39:58;;;;;;;10.20;7.30;;;;;;;17.77;93.33;98928.77;4125428;85;21764;-81
2021/08/23 02:46:00;;;;;;;14.75;8.78;;;;;;;17.84;93.40;98923.08;4115615;85;21092;-82
2021/08/23 02:52:01;;;;;;;17.77;8.80;;;;;;;17.81;93.45;98917.59;4101931;85;21502;-81
2021/08/23 02:58:02;;;;;;;11.00;8.15;;;;;;;17.72;93.73;98921.53;4129387;85;21061;-82
2021/08/23 03:04:03;;;;;;;9.98;8.75;;;;;;;17.77;94.02;98912.74;4122431;85;21574;-80
2021/08/23 03:10:06;;;;;;;16.15;9.98;;;;;;;17.66;93.88;98911.56;4096504;85;21004;-82
2021/08/23 03:16:10;;;;;;;10.05;8.28;;;;;;;17.70;94.17;98913.66;4129194;85;21061;-80
2021/08/23 03:22:11;;;;;;;11.57;9.25;;;;;;;17.66;94.51;98902.47;4118518;85;21426;-81
2021/08/23 03:28:13;;;;;;;11.28;8.83;;;;;;;17.66;94.72;98906.03;4116212;85;21053;-82
2021/08/23 03:34:14;;;;;;;12.53;8.68;;;;;;;17.65;94.78;98909.22;4130526;85;21080;-81
2021/08/23 03:40:15;;;;;;;13.32;8.68;;;;;;;17.72;94.96;98905.72;4189823;81;26324;-82
2021/08/23 03:46:16;;;;;;;12.23;10.03;;;;;;;17.80;94.96;98909.91;4290940;81;21608;-83
2021/08/23 03:52:17;;;;;;;11.80;9.73;;;;;;;17.87;94.89;98906.99;4287428;81;21045;-81
2021/08/23 03:58:19;;;;;;;15.35;11.90;;;;;;;17.89;94.79;98912.11;4284961;81;21566;-82
2021/08/23 04:04:21;;;;;;;15.20;12.90;;;;;;;17.80;94.80;98919.60;4293865;81;21519;-80
2021/08/23 04:10:22;;;;;;;14.25;11.08;;;;;;;17.72;95.24;98920.94;4259616;81;21045;-82
2021/08/23 04:16:24;;;;;;;18.52;12.53;;;;;;;17.67;95.44;98920.04;4299678;81;21075;-82
2021/08/23 04:22:25;;;;;;;14.15;12.07;;;;;;;17.65;95.71;98928.59;4290193;81;21034;-81
2021/08/23 04:28:26;;;;;;;13.43;11.40;;;;;;;17.68;95.67;98927.75;4276973;81;21000;-82
2021/08/23 04:34:28;;;;;;;14.35;11.08;;;;;;;17.67;95.71;98930.32;4288544;81;21686;-81
2021/08/23 04:40:29;;;;;;;14.25;11.20;;;;;;;17.57;96.33;98947.30;4297557;81;21308;-82
2021/08/23 04:46:33;;;;;;;16.23;11.00;;;;;;;17.66;96.44;98961.39;4276349;81;21026;-82
2021/08/23 04:52:44;;;;;;;11.93;10.00;;;;;;;17.72;96.36;98979.67;4295924;81;21711;-82
2021/08/23 04:58:47;;;;;;;12.07;9.90;;;;;;;17.66;96.52;99007.06;4290293;81;21523;-82
2021/08/23 05:04:49;;;;;;;13.60;10.03;;;;;;;17.56;96.59;99001.69;4294184;81;21043;-84
2021/08/23 05:10:53;;;;;;;12.50;9.10;;;;;;;17.50;96.99;98996.45;4281954;81;21022;-84
2021/08/23 05:17:05;;;;;;;14.50;9.40;;;;;;;17.48;97.17;99001.03;4288432;81;21588;-84
2021/08/23 05:23:21;;;;;;;9.10;8.03;;;;;;;17.50;97.20;99006.14;4292115;81;21042;-85
2021/08/23 05:29:22;;;;;;;10.80;8.30;;;;;;;17.47;97.75;99008.38;4284862;81;21042;-84
2021/08/23 05:35:24;;;;;;;10.85;7.95;;;;;;;17.46;97.85;99015.88;4293400;81;20998;-85
2021/08/23 05:41:33;;;;;;;11.35;8.23;;;;;;;17.45;98.08;99025.39;4296445;81;21030;-84
2021/08/23 05:47:35;;;;;;;11.83;8.15;;;;;;;17.48;98.19;99035.63;4288586;81;21043;-84
2021/08/23 05:53:37;;;;;;;15.23;8.53;;;;;;;17.52;98.53;99033.60;4290105;81;21063;-85
2021/08/23 05:59:38;;;;;;;15.05;9.58;;;;;;;17.61;98.63;99046.30;4281348;81;21035;-84
2021/08/23 06:05:46;;;;;;;15.65;10.53;;;;;;;17.65;98.60;99047.01;4286134;81;21681;-85
2021/08/23 06:11:47;;;;;;;10.88;8.30;;;;;;;17.61;98.74;99053.22;4291671;81;21577;-85
2021/08/23 06:17:50;;;;;;;11.75;8.28;;;;;;;17.61;98.67;99054.60;4282967;81;21007;-84
2021/08/23 06:23:52;;;;;;;17.87;9.58;;;;;;;17.59;98.90;99054.23;4279928;81;21079;-85
2021/08/23 06:29:53;;;;;;;18.12;10.08;;;;;;;17.60;98.88;99059.17;4295248;81;21610;-84
2021/08/23 06:35:55;;;;;;;15.08;8.15;;;;;;;17.61;99.07;99055.19;4284534;81;21364;-86
2021/08/23 06:41:56;;;;;;;23.20;9.38;;;;;;;17.63;98.98;99063.87;4293074;81;21039;-85
2021/08/23 06:48:01;;;;;;;13.25;6.47;;;;;;;17.58;99.04;99051.29;4287683;81;21002;-85
2021/08/23 06:54:04;;;;;;;11.07;6.27;;;;;;;17.53;99.00;99051.76;4287398;81;21041;-83
2021/08/23 07:00:10;;;;;;;7.95;6.40;;;;;;;17.48;98.95;99050.84;4290450;81;21002;-85
2021/08/23 07:06:11;;;;;;;9.33;5.60;;;;;;;17.45;98.99;99048.92;4283579;81;21067;-84
2021/08/23 07:12:12;;;;;;;14.33;7.00;;;;;;;17.42;98.96;99040.05;4297188;81;21045;-85
2021/08/23 07:18:14;;;;;;;8.25;5.00;;;;;;;17.36;98.95;99051.41;4280747;81;21040;-83
2021/08/23 07:24:16;;;;;;;12.55;5.45;;;;;;;17.37;99.09;99048.05;4285730;81;21085;-84
2021/08/23 07:30:17;;;;;;;7.58;3.98;;;;;;;17.39;99.28;99045.63;4296453;81;21034;-84
2021/08/23 07:36:19;;;;;;;6.92;4.25;;;;;;;17.49;99.23;99044.12;4291753;81;21041;-84
2021/08/23 07:42:20;;;;;;;5.05;4.22;;;;;;;17.56;99.36;99044.00;4299450;81;21061;-83
2021/08/23 07:48:21;;;;;;;6.17;4.15;;;;;;;17.64;99.40;99049.61;4284375;81;21058;-83
2021/08/23 07:54:22;;;;;;;5.28;3.72;;;;;;;17.71;99.69;99046.70;4283631;81;21014;-83
2021/08/23 08:00:24;;;;;;;7.30;4.20;;;;;;;17.76;99.56;99051.77;4289353;81;21026;-83
2021/08/23 08:06:25;;;;;;;7.42;4.35;;;;;;;17.79;99.42;99048.16;4292469;81;21057;-84
2021/08/23 08:12:27;;;;;;;6.00;4.60;;;;;;;17.87;99.63;99052.99;4284369;81;21109;-83
2021/08/23 08:18:28;;;;;;;8.73;4.67;;;;;;;17.97;99.48;99056.95;4298957;81;21532;-83
2021/08/23 08:24:29;;;;;;;7.53;5.05;;;;;;;17.93;99.04;99057.60;4290697;81;21577;-82
2021/08/23 08:30:31;;;;;;;7.33;5.08;;;;;;;17.94;99.40;99057.80;4289908;81;21015;-83
2021/08/23 08:36:34;;;;;;;7.80;4.47;;;;;;;17.94;99.54;99055.63;4290646;81;21073;-84
2021/08/23 08:42:36;;;;;;;4.65;3.25;;;;;;;17.89;99.21;99062.44;4293346;81;21003;-83
2021/08/23 08:48:37;;;;;;;5.53;4.33;;;;;;;17.81;99.12;99065.14;4288170;81;21096;-83
2021/08/23 08:54:41;;;;;;;6.05;4.15;;;;;;;17.80;99.27;99065.56;4282838;81;21030;-83
2021/08/23 09:00:42;;;;;;;7.08;4.40;;;;;;;17.82;99.06;99062.54;4294233;81;20964;-82
2021/08/23 09:06:43;;;;;;;5.37;3.37;;;;;;;17.86;99.28;99070.80;4290955;81;21030;-82
2021/08/23 09:12:45;;;;;;;4.75;3.40;;;;;;;17.88;99.22;99081.65;4289909;81;21061;-83
2021/08/23 09:18:46;;;;;;;6.30;3.37;;;;;;;17.98;99.31;99072.36;4286393;81;20986;-82
2021/08/23 09:24:49;;;;;;;5.28;3.33;;;;;;;18.00;98.89;99066.39;4293620;81;21580;-83
2021/08/23 09:30:58;;;;;;;5.47;3.80;;;;;;;18.08;99.25;99074.17;4288189;81;21031;-84
2021/08/23 09:37:00;;;;;;;7.92;5.20;;;;;;;18.14;99.00;99067.53;4291311;81;21102;-83
2021/08/23 09:43:11;;;;;;;10.48;5.85;;;;;;;18.11;99.05;99061.45;4295371;81;21045;-83
2021/08/23 09:49:13;;;;;;;10.53;5.85;;;;;;;18.23;99.20;99063.59;4291523;81;21626;-81
2021/08/23 09:55:15;;;;;;;8.75;5.70;;;;;;;18.43;99.37;99063.06;4287673;81;21081;-83
2021/08/23 10:01:16;;;;;;;6.28;3.90;;;;;;;18.56;99.06;99059.82;4289844;81;21069;-82
2021/08/23 10:07:17;;;;;;;10.00;4.00;;;;;;;18.62;98.84;99058.91;4291812;81;22137;-81
2021/08/23 10:13:19;;;;;;;4.80;3.87;;;;;;;18.64;98.62;99059.86;4295882;81;21854;-80
2021/08/23 10:19:21;;;;;;;6.35;4.67;;;;;;;18.70;98.99;99051.22;4289564;81;21105;-80
2021/08/23 10:25:23;;;;;;;8.70;5.12;;;;;;;18.78;98.98;99061.58;4292653;81;21004;-80
2021/08/23 10:31:31;;;;;;;7.97;4.58;;;;;;;18.79;98.68;99058.38;4285068;81;21034;-80
2021/08/23 10:37:32;;;;;;;5.40;4.25;;;;;;;18.75;98.25;99060.42;4287503;81;21057;-81
2021/08/23 10:43:56;;;;;;;7.70;4.50;;;;;;;18.66;98.12;99070.72;4291150;81;21069;-80
2021/08/23 10:49:58;;;;;;;9.05;5.22;;;;;;;18.59;98.18;99068.08;4283196;81;21038;-81
2021/08/23 10:56:18;;;;;;;8.75;4.50;;;;;;;18.57;98.45;99072.49;4297433;81;21066;-81
2021/08/23 11:02:34;;;;;;;7.90;4.30;;;;;;;18.54;98.79;99069.95;4301478;81;25090;-81
2021/08/23 11:08:36;;;;;;;;;;;;;;;18.48;98.65;99062.55;4304471;82;21015;-81
2021/08/23 11:14:48;;;;;;;7.05;5.40;;;;;;;18.44;98.97;99048.78;4289106;82;20138;-81
2021/08/23 11:20:52;;;;;;;7.25;5.28;;;;;;;18.37;98.62;99043.95;4297536;81;21059;-82
2021/08/23 11:27:00;;;;;;;8.58;5.45;;;;;;;18.36;98.54;99036.23;4305075;82;21383;-81
2021/08/23 11:33:00;;;;;;;11.05;5.05;;;;;;;18.34;98.57;99037.85;4297065;82;21047;-81
2021/08/23 11:39:12;;;;;;;8.88;5.15;;;;;;;18.29;98.43;99032.20;4295803;82;21094;-81
2021/08/23 11:45:23;;;;;;;8.05;5.17;;;;;;;18.38;98.72;99034.45;4299106;82;21484;-81
2021/08/23 11:51:29;;;;;;;7.35;4.25;;;;;;;18.45;98.65;99039.25;4294457;82;21022;-82
2021/08/23 11:57:32;;;;;;;10.73;4.57;;;;;;;18.47;98.47;99041.59;4297527;82;21091;-82
2021/08/23 12:03:34;;;;;;;6.95;4.12;;;;;;;18.52;98.55;99039.13;4055177;85;21038;-82
2021/08/23 12:09:35;;;;;;;5.97;3.85;;;;;;;18.63;98.75;99029.98;4070983;85;21053;-81
2021/08/23 12:15:55;;;;;;;7.87;3.87;;;;;;;18.69;98.57;99033.81;4148098;83;21039;-81
2021/08/23 12:22:04;;;;;;;5.15;3.92;;;;;;;18.80;98.71;99034.97;4164334;83;21035;-81
2021/08/23 12:28:10;;;;;;;6.10;4.25;;;;;;;18.88;98.43;99036.98;4108438;85;21139;-82
2021/08/23 12:34:14;;;;;;;8.33;4.60;;;;;;;18.91;98.12;99028.59;4256126;82;21058;-82
2021/08/23 12:40:15;;;;;;;7.03;3.80;;;;;;;18.86;97.18;99022.75;4274612;82;21005;-81
2021/08/23 12:46:16;;;;;;;7.08;4.10;;;;;;;19.00;95.10;99007.19;4273906;82;20999;-81
2021/08/23 12:52:17;;;;;;;3.90;3.10;;;;;;;19.23;94.28;99008.45;4113519;83;21077;-82
2021/08/23 12:58:18;;;;;;;8.75;4.17;;;;;;;19.39;94.49;99005.70;4151766;83;21148;-81
2021/08/23 13:04:20;;;;;;;6.83;3.65;;;;;;;19.39;94.30;99000.94;4160368;84;21535;-81
2021/08/23 13:10:21;;;;;;;6.97;2.83;;;;;;;19.42;94.55;99004.23;4144992;84;21027;-82
2021/08/23 13:16:25;;;;;;;5.72;3.30;;;;;;;19.48;94.52;99004.52;4139796;84;21027;-80
2021/08/23 13:22:26;;;;;;;6.30;4.05;;;;;;;19.58;93.95;98991.75;4159569;83;21065;-82
2021/08/23 13:28:28;;;;;;;6.25;4.53;;;;;;;19.61;94.07;98992.27;4178364;83;21573;-81
2021/08/23 13:34:29;;;;;;;7.25;4.28;;;;;;;19.71;93.20;98996.78;4189092;83;21086;-82
2021/08/23 13:40:37;;;;;;;5.72;3.90;;;;;;;19.76;93.01;98989.91;4138068;84;21056;-81
2021/08/23 13:46:39;;;;;;;4.85;3.52;;;;;;;19.96;92.51;98985.02;4130833;84;21586;-81
2021/08/23 13:52:40;;;;;;;6.75;3.30;;;;;;;20.04;92.17;98990.55;4148605;84;22232;-81
2021/08/23 13:58:43;;;;;;;4.42;3.20;;;;;;;20.02;92.27;98995.76;4107378;84;21049;-81
2021/08/23 14:04:44;;;;;;;4.45;3.05;;;;;;;19.92;92.26;98994.83;4250649;82;21552;-81
2021/08/23 14:10:45;;;;;;;7.97;3.65;;;;;;;19.81;92.10;99009.59;4269682;82;21488;-83
2021/08/23 14:16:47;;;;;;;9.60;2.83;;;;;;;19.52;91.96;99024.63;4266902;82;21045;-87
2021/08/23 14:22:49;;;;;;;4.60;2.47;;;;;;;18.90;91.55;99020.70;4281950;82;21028;-86
2021/08/23 14:28:50;;;;;;;6.65;3.10;;;;;;;18.48;91.46;99001.57;4275146;81;21034;-85
2021/08/23 14:34:52;;;;;;;21.20;3.87;;;;;;;18.23;92.23;99003.42;4173918;81;23736;-84
2021/08/23 14:40:53;;;;;;;17.85;5.42;;;;;;;18.17;93.04;99002.36;4159028;84;21944;-83
2021/08/23 14:46:54;;;;;;;12.58;3.83;;;;;;;18.16;93.49;98997.25;4165312;84;21085;-82
2021/08/23 14:52:55;;;;;;;4.20;2.95;;;;;;;18.15;94.02;98999.85;4166032;84;21050;-81
2021/08/23 14:58:58;;;;;;;5.12;2.55;;;;;;;18.09;93.88;99000.14;4169318;84;21085;-81
2021/08/23 15:04:59;;;;;;;5.25;2.75;;;;;;;18.11;94.58;98990.22;4154140;83;101852;-81
2021/08/23 15:11:00;;;;;;;8.95;3.10;;;;;;;18.25;94.80;98990.53;4169117;84;21609;-80
2021/08/23 15:17:02;;;;;;;6.20;3.22;;;;;;;18.36;94.87;98989.72;4161895;84;21038;-81
2021/08/23 15:23:05;;;;;;;8.98;3.62;;;;;;;18.44;94.94;98980.88;4164843;84;21121;-80
2021/08/23 15:29:06;;;;;;;5.65;4.37;;;;;;;18.48;94.90;98983.55;4170947;84;21069;-80
2021/08/23 15:35:08;;;;;;;5.80;3.95;;;;;;;18.47;94.92;98977.25;4173373;84;21014;-81
2021/08/23 15:41:11;;;;;;;7.90;4.53;;;;;;;18.41;95.31;98973.42;4167131;84;21058;-81
2021/08/23 15:47:15;;;;;;;5.80;4.15;;;;;;;18.35;95.62;98971.54;4164048;84;21014;-82
2021/08/23 15:53:15;;;;;;;6.55;3.87;;;;;;;18.40;95.88;98966.92;4017001;87;21111;-81
2021/08/23 15:59:17;;;;;;;11.80;4.92;;;;;;;18.45;96.18;98965.80;4068322;86;21104;-81
2021/08/23 16:05:18;;;;;;;6.85;5.25;;;;;;;18.50;96.41;98962.53;4048205;86;21080;-84
2021/08/23 16:11:19;;;;;;;5.33;4.58;;;;;;;18.54;96.70;98949.98;4030436;86;21539;-82
2021/08/23 16:17:21;;;;;;;7.12;4.60;;;;;;;18.52;96.99;98945.47;4033132;86;21091;-83
2021/08/23 16:23:23;;;;;;;7.78;4.03;;;;;;;18.48;97.02;98946.92;4021799;86;21103;-82
2021/08/23 16:29:25;;;;;;;5.67;4.17;;;;;;;18.46;97.33;98947.19;4050926;84;21098;-83
2021/08/23 16:35:28;;;;;;;6.40;4.40;;;;;;;18.46;97.39;98937.48;4066816;84;21705;-82
2021/08/23 16:41:30;;;;;;;4.40;3.20;;;;;;;18.47;97.69;98939.04;4068879;86;21010;-82
2021/08/23 16:47:31;;;;;;;7.97;3.80;;;;;;;18.45;97.49;98947.78;4057858;86;21082;-83
2021/08/23 16:53:32;;;;;;;8.43;3.80;;;;;;;18.37;97.45;98946.34;3948220;85;9999661;-83
2021/08/23 16:59:33;;;;;;;3.90;2.90;;;;;;;18.25;97.65;98951.74;4032878;85;21119;-83
2021/08/23 17:05:37;;;;;;;6.75;4.03;;;;;;;18.12;97.64;98947.45;4046155;86;21075;-83
2021/08/23 17:11:39;;;;;;;3.58;2.77;;;;;;;18.05;97.79;98946.81;3973581;87;21904;-82
2021/08/23 17:17:41;;;;;;;5.83;3.27;;;;;;;17.99;97.96;98954.84;3983791;87;21524;-83
2021/08/23 17:23:43;;;;;;;6.08;3.27;;;;;;;17.94;97.98;98964.23;4004171;87;21021;-82
2021/08/23 17:29:44;;;;;;;4.75;2.72;;;;;;;17.84;97.62;98971.53;3997525;86;21063;-83
2021/08/23 17:35:45;;;;;;;5.08;2.87;;;;;;;17.77;98.05;98978.59;4151261;84;21005;-83
2021/08/23 17:41:48;;;;;;;8.25;3.17;;;;;;;17.64;97.78;98978.23;4153401;84;21532;-83
2021/08/23 17:47:49;;;;;;;6.53;3.10;;;;;;;17.56;98.37;98986.47;4154258;84;21014;-83
2021/08/23 17:53:51;;;;;;;7.30;3.45;;;;;;;17.58;98.53;98983.48;4045169;84;9999960;-83
2021/08/23 17:59:54;;;;;;;10.45;5.47;;;;;;;17.59;98.90;98982.86;4163773;84;22017;-83
2021/08/23 18:05:55;;;;;;;4.95;3.70;;;;;;;17.58;98.40;98971.02;4011446;87;21047;-83
2021/08/23 18:11:57;;;;;;;7.67;4.92;;;;;;;17.42;98.77;98971.45;3979633;87;21123;-83
2021/08/23 18:17:58;;;;;;;7.90;4.87;;;;;;;17.31;98.97;98977.77;3996571;86;21055;-83
2021/08/23 18:23:59;;;;;;;11.08;6.05;;;;;;;17.27;99.66;98975.08;4001667;84;21036;-83
2021/08/23 18:30:00;;;;;;;9.93;5.47;;;;;;;17.27;99.54;98979.81;4022965;85;21117;-84
2021/08/23 18:36:01;;;;;;;8.55;5.80;;;;;;;17.30;99.81;98985.89;4026889;86;21060;-84
2021/08/23 18:42:03;;;;;;;10.30;5.80;;;;;;;17.27;99.64;98984.76;4162923;84;21071;-83
2021/08/23 18:48:05;;;;;;;12.93;6.47;;;;;;;17.24;99.65;98984.22;4018405;87;21070;-83
2021/08/23 18:54:06;;;;;;;10.70;6.35;;;;;;;17.17;100.00;98978.78;4045518;85;21116;-84
2021/08/23 19:00:09;;;;;;;7.90;5.70;;;;;;;17.21;100.00;98988.58;4039319;86;21067;-84
2021/08/23 19:06:10;;;;;;;9.88;5.87;;;;;;;17.13;99.95;98987.75;4037117;85;21537;-83
2021/08/23 19:12:11;;;;;;;17.30;5.97;;;;;;;17.02;100.00;98982.36;4044615;86;21140;-84
2021/08/23 19:18:12;;;;;;;11.57;5.90;;;;;;;17.16;100.00;98984.14;4039494;86;21095;-84
2021/08/23 19:24:14;;;;;;;14.83;7.08;;;;;;;17.21;100.00;98985.81;4147401;84;21859;-83
2021/08/23 19:30:15;;;;;;;15.13;5.67;;;;;;;17.21;100.00;98991.35;4146923;84;21949;-83
2021/08/23 19:36:17;;;;;;;8.25;5.55;;;;;;;17.18;100.00;98992.19;4160295;84;21546;-83
2021/08/23 19:42:18;;;;;;;11.60;5.50;;;;;;;17.18;100.00;98992.78;3987819;85;21084;-83
2021/08/23 19:48:19;;;;;;;11.48;5.72;;;;;;;17.20;100.00;98994.54;4076484;85;21003;-83
2021/08/23 19:54:20;;;;;;;10.08;5.37;;;;;;;17.20;100.00;98987.03;3978405;86;21087;-83
2021/08/23 20:00:22;;;;;;;11.22;5.60;;;;;;;17.17;100.00;98982.93;4048118;86;21055;-84
2021/08/23 20:06:24;;;;;;;8.35;5.67;;;;;;;17.20;100.00;98985.65;4073749;85;21035;-83
2021/08/23 20:12:25;;;;;;;8.73;5.62;;;;;;;17.21;100.00;98984.44;4061274;85;21632;-83
2021/08/23 20:18:26;;;;;;;11.63;5.10;;;;;;;17.03;100.00;98985.91;4036000;86;21621;-83
2021/08/23 20:24:27;;;;;;;11.33;5.90;;;;;;;17.03;100.00;98976.23;4045882;85;21112;-84
2021/08/23 20:30:28;;;;;;;12.30;5.30;;;;;;;17.05;100.00;98975.98;4041398;85;21096;-85
2021/08/23 20:42:44;;;;;;;7.53;5.08;;;;;;;17.14;100.00;98976.27;4054487;85;21627;-83
2021/08/23 20:48:47;;;;;;;9.78;5.92;;;;;;;17.12;100.00;98982.80;4040895;85;21102;-83
2021/08/23 20:54:48;;;;;;;10.75;5.00;;;;;;;16.98;100.00;98979.46;4052289;86;21136;-83
2021/08/23 21:00:50;;;;;;;10.38;6.12;;;;;;;16.78;100.00;98969.69;4036118;86;21146;-83
2021/08/23 21:06:51;;;;;;;7.58;5.05;;;;;;;16.74;100.00;98963.41;4055114;85;21550;-83
2021/08/23 21:12:52;;;;;;;10.70;5.65;;;;;;;16.59;100.00;98962.05;4035611;86;21503;-83
2021/08/23 21:18:53;;;;;;;9.63;5.35;;;;;;;16.52;100.00;98957.98;4164453;83;21520;-82
2021/08/23 21:24:55;;;;;;;10.10;5.05;;;;;;;16.51;100.00;98950.11;4008545;87;21127;-83
2021/08/23 21:30:59;;;;;;;8.45;4.87;;;;;;;16.49;100.00;98949.77;4004926;87;21017;-82
2021/08/23 21:37:00;;;;;;;9.78;5.78;;;;;;;16.52;100.00;98942.79;3976212;88;21618;-83
2021/08/23 21:43:03;;;;;;;9.00;5.55;;;;;;;16.50;100.00;98946.59;4088477;85;21058;-82
2021/08/23 21:49:04;;;;;;;9.03;5.50;;;;;;;16.47;100.00;98952.95;4090517;85;21078;-83
2021/08/23 21:55:07;;;;;;;9.05;5.87;;;;;;;16.54;100.00;98954.22;3999671;87;21045;-83
2021/08/23 22:01:09;;;;;;;15.38;5.15;;;;;;;16.50;100.00;98941.06;4024452;86;21404;-82
2021/08/23 22:07:10;;;;;;;10.05;5.15;;;;;;;16.55;100.00;98941.95;4166069;84;21062;-82
2021/08/23 22:13:12;;;;;;;12.98;5.70;;;;;;;16.46;100.00;98934.78;4167714;84;21024;-82
2021/08/23 22:19:13;;;;;;;14.13;5.80;;;;;;;16.39;100.00;98941.77;4161856;84;21078;-83
2021/08/23 22:25:15;;;;;;;8.68;5.50;;;;;;;16.43;100.00;98943.88;4008086;87;21057;-82
2021/08/23 22:31:17;;;;;;;11.08;5.72;;;;;;;16.43;100.00;98936.97;4034496;85;21081;-82
2021/08/23 22:37:19;;;;;;;9.73;5.90;;;;;;;16.36;100.00;98934.31;4064364;85;21074;-83
2021/08/23 22:43:20;;;;;;;9.33;5.75;;;;;;;16.00;100.00;98948.37;4048379;86;21159;-83
2021/08/23 22:49:22;;;;;;;12.90;5.00;;;;;;;15.92;100.00;98944.70;4039089;86;21619;-82
2021/08/23 22:55:23;;;;;;;7.03;5.12;;;;;;;15.98;100.00;98948.58;4062851;85;21081;-83
2021/08/23 23:01:24;;;;;;;14.47;5.70;;;;;;;16.02;100.00;98939.67;4046214;85;21476;-83
2021/08/23 23:07:25;;;;;;;10.05;5.42;;;;;;;16.00;100.00;98951.72;4061150;86;21018;-82
2021/08/23 23:13:26;;;;;;;11.88;5.08;;;;;;;16.05;100.00;98946.54;4069977;86;21011;-83
2021/08/23 23:19:28;;;;;;;6.95;5.05;;;;;;;15.92;100.00;98948.84;4062115;86;21050;-82
2021/08/23 23:25:29;;;;;;;9.63;4.78;;;;;;;15.93;100.00;98948.44;4046806;84;21174;-83
2021/08/23 23:31:31;;;;;;;11.57;5.58;;;;;;;15.90;100.00;98960.30;4063673;85;21098;-83
2021/08/23 23:37:32;;;;;;;7.50;5.28;;;;;;;15.97;100.00;98952.54;4075525;85;21055;-83
2021/08/23 23:43:33;;;;;;;12.20;5.20;;;;;;;16.03;100.00;98967.45;4059670;86;21162;-84
2021/08/23 23:49:34;;;;;;;12.15;5.55;;;;;;;16.03;100.00;98966.08;4065514;85;21088;-83
2021/08/23 23:55:35;;;;;;;21.55;7.45;;;;;;;15.99;100.00;98959.20;4050342;86;21062;-82
